Avioradar koristi kolačiće da bi Vam omogućio jednostavnije i ugodnije korištenje stranice. 

AVIORADAR - Hrvatski zrakoplovni portal

Poremećaj 11/10/15 - DBV/LDDU

Nenad Sredojević.

 f_800_450_16119285_00_images_SQUAWK_11octdbv2.jpg f_800_450_16119285_00_images_SQUAWK_11octdbv3.jpg

Dolasci na DBV u holdingu.

LDDU 110600Z 13019KT 3000 TSRA SCT012 FEW025CB BKN025 18/17 Q0998 BECMG FM0700 7000 -RA BKN020
///Germanwings 4U954 CGN-DBV Airbus A319-132 (D-AGWB)
->GISAM FL190 ->ORAKA FL190 Sletio 09:33 loc
///Germanwings 4U7958 HAM-DBV Airbus A319-132 (D-AGWV)
->GISAM FL170 -> Sletio 09:18 loc
///Croatia Airlines OU384 ZAG-DBV Bombardier Dash 8 Q400 (9A-CQB)
->SIPAL FL200 ->RILIM FL200 -> Sletio 09:00 loc
///Germanwings 4U3950 HAJ-DBV Airbus A319-132 (D-AGWW)
-> PEVON FL230 -> Sletio 09:39 loc
///Luxair LG411 LUX-DBV Bombardier Dash 8 Q400 (LX-LGG)
->TIKSA FL210 -> Sletio 09:31 loc

LDDU 110630Z 11021G35KT 050V200 3000 +TSRA SCT010 SCT025CB BKN025 17/17 Q0999 BECMG FM0700 03015KT 7000 -RA BKN020

Stabilizacija situacije na DBV. 09:30 loc
LDDU 110730Z 24009KT 200V280 9999 SCT005 BKN015 18/18 Q0999 RETS NOSIG